Time;durP1;ratioP1;P1;durP2;ratioP2;P2;SDS_P1;SDS_P2;PMS_P1;PMS_P2;Temp;Humidity;BMP_temperature;BMP_pressure;BME280_temperature;BME280_humidity;BME280_pressure;Samples;Min_cycle;Max_cycle;Signal;HPM_P1;HPM_P2
2023/08/02 00:01:55;;;;;;;7.32;5.60;;;;;;;20.37;100.00;96629.22;5055407;28;20029;-71
2023/08/02 00:04:20;;;;;;;15.18;5.68;;;;;;;20.38;100.00;96636.38;5073450;28;20032;-71
2023/08/02 00:06:46;;;;;;;8.57;5.13;;;;;;;20.32;100.00;96620.78;5074154;28;20028;-71
2023/08/02 00:09:12;;;;;;;8.27;5.55;;;;;;;20.40;100.00;96628.88;5046755;28;20360;-71
2023/08/02 00:11:37;;;;;;;9.82;5.03;;;;;;;20.38;100.00;96612.75;5073224;28;20040;-71
2023/08/02 00:14:03;;;;;;;9.55;5.22;;;;;;;20.41;100.00;96626.00;5073115;28;20103;-71
2023/08/02 00:16:29;;;;;;;9.23;5.00;;;;;;;20.30;100.00;96622.84;5074410;28;20453;-71
2023/08/02 00:18:54;;;;;;;7.03;5.03;;;;;;;20.25;100.00;96625.19;5056641;28;20089;-71
2023/08/02 00:21:20;;;;;;;8.32;5.40;;;;;;;20.23;100.00;96628.09;5073049;28;20036;-71
2023/08/02 00:23:45;;;;;;;6.45;5.25;;;;;;;20.25;100.00;96623.31;5073252;28;20048;-70
2023/08/02 00:26:11;;;;;;;11.35;5.13;;;;;;;20.32;100.00;96620.78;5072963;28;20123;-70
2023/08/02 00:28:36;;;;;;;8.77;5.47;;;;;;;20.25;100.00;96617.03;5072808;28;20036;-71
2023/08/02 00:31:02;;;;;;;7.35;5.72;;;;;;;20.22;100.00;96603.81;5072640;28;20043;-71
2023/08/02 00:33:27;;;;;;;11.40;6.65;;;;;;;20.27;100.00;96621.28;5073163;28;20028;-71
2023/08/02 00:35:54;;;;;;;10.52;6.40;;;;;;;20.28;100.00;96624.88;5072789;28;20051;-71
2023/08/02 00:38:21;;;;;;;14.30;6.03;;;;;;;20.29;100.00;96626.56;5067263;28;20087;-70
2023/08/02 00:40:48;;;;;;;13.60;6.03;;;;;;;20.30;100.00;96630.97;5072631;28;20051;-71
2023/08/02 00:43:14;;;;;;;9.13;6.03;;;;;;;20.22;100.00;96615.53;5073997;28;20040;-71
2023/08/02 00:45:39;;;;;;;9.02;6.15;;;;;;;20.14;100.00;96625.59;5057926;28;20024;-70
2023/08/02 00:48:05;;;;;;;7.25;5.15;;;;;;;20.14;100.00;96622.88;5071243;28;20484;-71
2023/08/02 00:50:33;;;;;;;9.75;5.43;;;;;;;20.14;100.00;96639.16;5071495;28;20472;-72
2023/08/02 00:52:59;;;;;;;7.55;5.20;;;;;;;20.01;100.00;96635.16;5054776;28;20369;-71
2023/08/02 00:55:24;;;;;;;9.23;5.35;;;;;;;20.15;100.00;96644.41;5054883;28;20174;-71
2023/08/02 00:57:50;;;;;;;7.65;5.43;;;;;;;20.13;100.00;96642.91;5054660;28;20029;-71
2023/08/02 01:00:16;;;;;;;8.40;5.72;;;;;;;20.03;100.00;96654.81;5028726;28;20380;-71
2023/08/02 01:02:42;;;;;;;7.85;5.78;;;;;;;20.01;100.00;96642.44;5044453;28;20032;-71
2023/08/02 01:05:07;;;;;;;9.13;5.35;;;;;;;20.00;100.00;96638.03;5053081;28;20116;-71
2023/08/02 01:07:36;;;;;;;7.53;5.65;;;;;;;20.07;100.00;96638.16;5054584;28;20036;-71
2023/08/02 01:10:35;;;;;;;12.40;5.75;;;;;;;19.98;100.00;96640.94;5054227;28;20032;-71
2023/08/02 01:13:04;;;;;;;7.40;5.60;;;;;;;20.01;100.00;96643.28;5037419;28;20475;-71
2023/08/02 01:15:30;;;;;;;6.97;5.18;;;;;;;20.01;100.00;96639.72;5067128;28;20182;-71
2023/08/02 01:17:56;;;;;;;9.80;5.85;;;;;;;20.06;100.00;96631.06;5037764;28;20024;-73
2023/08/02 01:20:22;;;;;;;10.68;5.88;;;;;;;20.13;100.00;96642.91;5069257;28;20399;-71
2023/08/02 01:22:47;;;;;;;9.40;6.18;;;;;;;20.02;100.00;96622.44;5049226;28;20055;-71
2023/08/02 01:25:13;;;;;;;10.60;6.38;;;;;;;19.96;100.00;96614.97;5054319;28;20535;-71
2023/08/02 01:27:48;;;;;;;9.38;6.45;;;;;;;19.96;100.00;96632.09;5053963;28;20394;-71
2023/08/02 01:30:16;;;;;;;9.88;6.80;;;;;;;19.98;100.00;96623.78;5071116;28;20111;-71
2023/08/02 01:32:42;;;;;;;9.00;6.05;;;;;;;19.95;100.00;96625.00;5064871;28;20032;-71
2023/08/02 01:35:08;;;;;;;7.72;5.55;;;;;;;19.81;100.00;96617.56;5071687;28;20054;-71
2023/08/02 01:37:35;;;;;;;10.52;6.60;;;;;;;19.87;100.00;96611.44;5036953;28;20123;-71
2023/08/02 01:40:01;;;;;;;7.22;5.47;;;;;;;19.96;100.00;96629.38;5054320;28;20107;-71
2023/08/02 01:42:27;;;;;;;13.93;6.07;;;;;;;19.88;100.00;96631.28;5040859;28;20679;-71
2023/08/02 01:44:52;;;;;;;8.88;5.20;;;;;;;19.77;100.00;96615.38;5076162;28;20028;-71
2023/08/02 01:47:18;;;;;;;7.72;5.63;;;;;;;19.87;100.00;96640.47;5071211;28;20074;-71
2023/08/02 01:49:44;;;;;;;7.13;5.53;;;;;;;19.81;100.00;96636.56;5071811;28;20507;-71
2023/08/02 01:52:09;;;;;;;7.15;5.35;;;;;;;19.71;100.00;96608.78;5071200;28;20399;-71
2023/08/02 01:54:35;;;;;;;6.50;5.00;;;;;;;19.69;100.00;96605.38;5071201;28;20029;-72
2023/08/02 01:57:01;;;;;;;7.25;5.32;;;;;;;19.84;100.00;96619.91;5071712;28;20021;-71
2023/08/02 01:59:26;;;;;;;8.05;5.70;;;;;;;19.85;100.00;96602.63;5052957;28;20673;-72
2023/08/02 02:01:52;;;;;;;8.50;5.88;;;;;;;19.89;100.00;96628.41;5052888;28;20145;-71
2023/08/02 02:04:17;;;;;;;11.90;5.85;;;;;;;19.83;100.00;96617.41;5071230;28;20389;-71
2023/08/02 02:06:43;;;;;;;6.40;4.93;;;;;;;19.93;100.00;96624.31;5071207;28;20577;-71
2023/08/02 02:09:08;;;;;;;10.55;5.20;;;;;;;19.86;100.00;96607.03;5070965;28;20017;-71
2023/08/02 02:11:34;;;;;;;12.20;5.78;;;;;;;19.90;100.00;96616.50;5052507;28;20032;-71
2023/08/02 02:13:59;;;;;;;8.35;5.70;;;;;;;19.96;100.00;96615.81;5070806;28;20028;-71
2023/08/02 02:16:25;;;;;;;7.53;5.38;;;;;;;19.91;100.00;96610.06;5070733;28;20082;-71
2023/08/02 02:18:50;;;;;;;10.43;6.72;;;;;;;19.91;100.00;96580.22;5071168;28;20024;-71
2023/08/02 02:21:16;;;;;;;10.02;6.00;;;;;;;19.88;100.00;96596.00;5047840;28;20047;-71
2023/08/02 02:23:42;;;;;;;9.02;6.57;;;;;;;19.97;100.00;96612.06;5073029;28;20028;-71
2023/08/02 02:26:08;;;;;;;8.82;6.47;;;;;;;19.99;100.00;96615.44;5070864;28;20079;-72
2023/08/02 02:28:35;;;;;;;15.00;6.15;;;;;;;20.00;100.00;96617.16;5070636;28;20071;-71
2023/08/02 02:31:01;;;;;;;9.70;7.18;;;;;;;19.95;100.00;96619.56;5053146;28;20036;-71
2023/08/02 02:33:26;;;;;;;10.23;6.95;;;;;;;19.93;100.00;96609.91;5036336;28;20123;-72
2023/08/02 02:35:52;;;;;;;11.52;7.50;;;;;;;20.00;100.00;96628.00;5069206;28;20081;-71
2023/08/02 02:38:17;;;;;;;17.02;8.32;;;;;;;20.05;100.00;96627.50;5052473;28;20052;-71
2023/08/02 02:40:43;;;;;;;11.93;7.05;;;;;;;19.99;100.00;96622.78;5052298;28;20039;-71
2023/08/02 02:43:08;;;;;;;10.13;7.15;;;;;;;20.12;100.00;96649.38;5070599;28;20032;-71
2023/08/02 02:45:34;;;;;;;9.40;6.30;;;;;;;20.09;100.00;96647.81;5086004;28;20025;-71
2023/08/02 02:47:59;;;;;;;10.40;6.22;;;;;;;19.96;100.00;96642.13;5035522;28;20107;-71
2023/08/02 02:50:25;;;;;;;12.63;6.88;;;;;;;19.90;100.00;96637.41;5052533;28;20556;-71
2023/08/02 02:52:50;;;;;;;16.65;6.22;;;;;;;19.73;100.00;96620.31;5052241;28;20020;-71
2023/08/02 02:55:16;;;;;;;8.13;6.60;;;;;;;19.79;100.00;96637.75;5052353;28;20039;-72
2023/08/02 02:57:42;;;;;;;9.55;6.57;;;;;;;19.74;100.00;96630.16;5070189;28;20024;-71
2023/08/02 03:00:08;;;;;;;11.40;6.80;;;;;;;19.79;100.00;96644.03;5085656;28;20024;-71
2023/08/02 03:02:34;;;;;;;9.88;6.80;;;;;;;19.90;100.00;96649.09;5070153;28;20025;-71
2023/08/02 03:04:59;;;;;;;10.68;7.82;;;;;;;19.95;100.00;96645.84;5052005;28;20460;-71
2023/08/02 03:07:25;;;;;;;10.55;7.22;;;;;;;19.96;100.00;96632.09;5070138;28;20510;-71
2023/08/02 03:09:51;;;;;;;9.40;6.93;;;;;;;20.12;100.00;96647.47;5069848;28;20029;-72
2023/08/02 03:12:16;;;;;;;16.17;8.48;;;;;;;20.12;100.00;96635.78;5052206;28;20392;-71
2023/08/02 03:14:42;;;;;;;12.65;7.97;;;;;;;20.39;100.00;96638.06;5070118;28;20040;-72
2023/08/02 03:17:07;;;;;;;12.32;8.93;;;;;;;20.73;100.00;96619.50;5051058;28;20043;-71
2023/08/02 03:19:33;;;;;;;16.40;9.48;;;;;;;21.80;100.00;96629.28;5065778;28;20031;-71
2023/08/02 03:21:58;;;;;;;11.70;9.02;;;;;;;22.37;100.00;96624.00;5064699;28;20450;-70
2023/08/02 03:24:24;;;;;;;15.30;8.45;;;;;;;23.30;100.00;96600.25;5058488;28;20067;-72
2023/08/02 03:26:49;;;;;;;13.23;7.93;;;;;;;23.69;100.00;96580.63;5076174;28;20085;-71
2023/08/02 03:29:15;;;;;;;9.63;8.10;;;;;;;24.17;100.00;96582.44;5073622;28;20121;-71
2023/08/02 03:31:40;;;;;;;11.00;7.55;;;;;;;24.50;100.00;96601.69;5056296;28;20079;-71
2023/08/02 03:34:06;;;;;;;10.20;8.07;;;;;;;24.52;100.00;96594.13;5055560;28;20016;-70
2023/08/02 03:36:31;;;;;;;12.38;9.18;;;;;;;24.59;100.00;96594.13;5055931;28;20094;-72
2023/08/02 03:38:57;;;;;;;9.93;8.07;;;;;;;24.60;100.00;96593.94;5046551;28;20423;-71
2023/08/02 03:41:22;;;;;;;11.70;8.55;;;;;;;24.57;100.00;96596.25;5053688;28;20488;-72
2023/08/02 03:43:48;;;;;;;10.05;8.15;;;;;;;24.72;100.00;96610.59;5049117;28;20079;-72
2023/08/02 03:46:13;;;;;;;10.13;8.18;;;;;;;24.73;100.00;96609.56;5050432;28;20036;-72
2023/08/02 03:48:39;;;;;;;13.07;8.95;;;;;;;24.70;100.00;96602.59;5038253;28;20020;-72
2023/08/02 03:51:05;;;;;;;14.63;8.98;;;;;;;24.66;100.00;96627.84;5073947;28;20107;-72
2023/08/02 03:53:30;;;;;;;12.10;8.82;;;;;;;24.37;100.00;96617.19;5051252;28;20028;-70
2023/08/02 03:55:56;;;;;;;11.88;8.55;;;;;;;24.08;100.00;96640.16;5039115;28;20024;-72
2023/08/02 03:58:22;;;;;;;14.45;9.35;;;;;;;23.83;100.00;96644.41;5054859;28;20082;-70
2023/08/02 04:00:47;;;;;;;31.35;13.50;;;;;;;23.55;100.00;96644.41;5056174;28;20033;-69
2023/08/02 04:03:13;;;;;;;25.23;11.73;;;;;;;23.40;100.00;96647.22;5073108;28;20108;-70
2023/08/02 04:05:39;;;;;;;29.92;11.57;;;;;;;23.30;100.00;96646.66;5049572;28;20048;-70
2023/08/02 04:08:04;;;;;;;16.20;10.35;;;;;;;23.26;100.00;96644.53;5052609;28;20595;-70
2023/08/02 04:10:30;;;;;;;18.42;10.40;;;;;;;23.16;100.00;96642.13;5062738;28;20460;-71
2023/08/02 04:12:55;;;;;;;12.13;9.18;;;;;;;23.20;100.00;96638.81;5055023;28;20053;-71
2023/08/02 04:15:21;;;;;;;15.07;9.85;;;;;;;23.22;100.00;96650.34;5056718;28;20048;-71
2023/08/02 04:17:49;;;;;;;15.13;9.60;;;;;;;23.28;100.00;96667.00;5038525;28;20034;-71
2023/08/02 04:20:14;;;;;;;23.60;11.25;;;;;;;23.19;100.00;96661.66;5056306;28;20479;-71
2023/08/02 04:22:43;;;;;;;18.50;11.27;;;;;;;23.14;100.00;96668.75;5035177;28;20025;-70
2023/08/02 04:25:09;;;;;;;18.65;10.68;;;;;;;23.09;100.00;96666.63;5037661;28;20044;-70
2023/08/02 04:27:34;;;;;;;16.42;11.32;;;;;;;23.13;100.00;96678.81;5072794;28;20067;-71
2023/08/02 04:30:00;;;;;;;19.30;10.43;;;;;;;23.12;100.00;96681.75;5054818;28;20032;-71
2023/08/02 04:32:34;;;;;;;19.02;10.68;;;;;;;23.23;100.00;96690.25;5050466;28;20036;-71
2023/08/02 04:35:00;;;;;;;13.48;9.40;;;;;;;23.47;100.00;96680.03;5052853;28;20124;-71
2023/08/02 04:37:27;;;;;;;9.98;8.50;;;;;;;23.79;100.00;96657.59;5054822;28;20052;-71
2023/08/02 04:39:53;;;;;;;9.60;7.90;;;;;;;24.14;100.00;96658.50;5072831;28;20028;-71
2023/08/02 04:42:18;;;;;;;16.15;9.45;;;;;;;24.49;100.00;96662.03;5055089;28;20373;-72
2023/08/02 04:44:44;;;;;;;16.70;8.82;;;;;;;24.54;100.00;96662.28;5055009;28;20032;-72
2023/08/02 04:47:09;;;;;;;13.10;9.13;;;;;;;24.45;100.00;96664.38;5054748;28;20036;-71
2023/08/02 04:49:35;;;;;;;10.18;8.95;;;;;;;24.43;100.00;96662.84;5070736;28;20020;-71
2023/08/02 04:52:01;;;;;;;11.48;8.65;;;;;;;24.57;100.00;96672.81;5070667;28;20102;-71
2023/08/02 04:54:27;;;;;;;16.48;8.68;;;;;;;24.43;100.00;96669.16;5072510;28;20028;-72
2023/08/02 04:56:52;;;;;;;18.25;10.27;;;;;;;24.49;100.00;96675.72;5051678;28;20032;-72
2023/08/02 04:59:18;;;;;;;23.27;12.20;;;;;;;24.47;100.00;96683.28;5072732;28;20465;-72
2023/08/02 05:01:43;;;;;;;13.30;10.30;;;;;;;24.46;100.00;96681.59;5054417;28;20492;-72
2023/08/02 05:04:09;;;;;;;13.02;9.57;;;;;;;24.41;100.00;96689.56;5072330;28;20063;-72
2023/08/02 05:06:35;;;;;;;11.63;8.63;;;;;;;24.45;100.00;96690.84;5072179;28;20016;-72
2023/08/02 05:09:04;;;;;;;16.17;9.55;;;;;;;24.58;100.00;96708.16;5054294;28;20099;-74
2023/08/02 05:11:33;;;;;;;18.60;10.82;;;;;;;24.58;100.00;96677.25;5072652;28;20127;-72
2023/08/02 05:13:58;;;;;;;20.55;11.73;;;;;;;24.66;100.00;96690.75;5047717;28;20477;-72
2023/08/02 05:16:25;;;;;;;15.45;10.00;;;;;;;24.69;100.00;96687.59;5054312;28;20090;-72
2023/08/02 05:18:52;;;;;;;17.63;10.13;;;;;;;24.84;100.00;96712.94;5072131;28;20040;-72
2023/08/02 05:21:19;;;;;;;11.73;9.10;;;;;;;24.78;100.00;96703.66;5072270;28;20457;-72
2023/08/02 05:23:44;;;;;;;13.50;9.77;;;;;;;24.79;100.00;96699.03;5071941;28;20085;-72
2023/08/02 05:26:10;;;;;;;14.65;9.40;;;;;;;24.87;100.00;96707.06;5072104;28;20028;-72
2023/08/02 05:28:37;;;;;;;27.48;12.48;;;;;;;25.00;100.00;96717.22;5046385;28;20100;-72
2023/08/02 05:31:03;;;;;;;15.23;10.45;;;;;;;25.24;100.00;96725.72;5052321;28;20025;-72
2023/08/02 05:33:28;;;;;;;15.60;10.77;;;;;;;25.10;100.00;96718.50;5071798;28;20044;-73
2023/08/02 05:35:54;;;;;;;24.23;15.55;;;;;;;25.05;100.00;96729.25;5071516;28;20024;-73
2023/08/02 05:38:21;;;;;;;13.75;8.77;;;;;;;25.28;100.00;96726.16;5044268;28;20132;-72
2023/08/02 05:40:47;;;;;;;14.38;8.90;;;;;;;25.26;100.00;96723.63;5053364;28;20086;-71
2023/08/02 05:43:12;;;;;;;12.45;8.85;;;;;;;25.23;100.00;96717.69;5048749;28;20028;-72
2023/08/02 05:45:38;;;;;;;58.17;41.38;;;;;;;25.34;100.00;96728.06;5059242;28;20033;-71
2023/08/02 05:48:03;;;;;;;14.50;10.82;;;;;;;25.21;100.00;96731.63;5051632;28;20060;-72
2023/08/02 05:50:31;;;;;;;18.77;11.93;;;;;;;25.38;100.00;96732.06;5033825;28;20025;-72
2023/08/02 05:52:57;;;;;;;42.58;14.00;;;;;;;25.74;100.00;96729.84;5051278;28;20021;-72
2023/08/02 05:55:22;;;;;;;96.95;57.72;;;;;;;25.70;100.00;96719.50;5051881;28;20067;-72
2023/08/02 05:57:48;;;;;;;23.63;11.02;;;;;;;25.98;100.00;96720.16;5069310;28;20107;-72
2023/08/02 06:00:14;;;;;;;21.20;10.68;;;;;;;26.49;100.00;96725.00;5071530;28;20029;-73
2023/08/02 06:02:40;;;;;;;41.47;15.38;;;;;;;26.85;100.00;96708.84;5053227;28;20483;-74
2023/08/02 06:05:05;;;;;;;17.33;10.13;;;;;;;27.34;100.00;96717.28;5041515;28;20040;-72
2023/08/02 06:07:31;;;;;;;12.25;9.63;;;;;;;27.56;100.00;96722.47;5051171;28;20036;-73
2023/08/02 06:09:56;;;;;;;12.35;9.52;;;;;;;27.83;100.00;96719.31;5050961;28;20428;-72
2023/08/02 06:12:22;;;;;;;23.00;16.35;;;;;;;27.98;100.00;96722.56;5033561;28;20067;-72
2023/08/02 06:14:47;;;;;;;14.13;8.32;;;;;;;28.47;94.49;96716.22;5050804;28;20409;-72
2023/08/02 06:17:13;;;;;;;9.68;8.48;;;;;;;29.85;84.79;96708.13;5033461;28;20082;-72
2023/08/02 06:19:39;;;;;;;32.05;17.85;;;;;;;30.36;82.39;96722.13;5041208;28;20020;-73
2023/08/02 06:22:04;;;;;;;12.68;8.57;;;;;;;30.84;76.31;96704.44;5053128;28;20035;-73
2023/08/02 06:24:30;;;;;;;29.65;12.43;;;;;;;31.81;72.18;96722.78;5071017;28;20024;-72
2023/08/02 06:26:55;;;;;;;14.02;8.65;;;;;;;32.22;67.99;96725.22;5067771;28;20500;-75
2023/08/02 06:29:21;;;;;;;17.92;9.95;;;;;;;32.22;66.41;96710.53;5016806;28;20040;-74
2023/08/02 06:31:46;;;;;;;16.40;7.82;;;;;;;32.48;65.32;96717.31;5017807;28;20040;-75
2023/08/02 06:34:12;;;;;;;13.90;8.52;;;;;;;33.74;58.72;96703.28;5036901;28;20036;-72
2023/08/02 06:36:40;;;;;;;16.90;9.85;;;;;;;34.87;54.26;96695.59;5070619;28;20029;-73
2023/08/02 06:39:06;;;;;;;13.27;9.30;;;;;;;36.14;51.75;96699.72;5070311;28;20044;-70
2023/08/02 06:41:32;;;;;;;14.73;8.75;;;;;;;35.72;51.50;96694.31;5052933;28;20035;-70
2023/08/02 06:43:57;;;;;;;14.48;9.57;;;;;;;36.05;50.85;96690.25;5059441;28;20029;-71
2023/08/02 06:46:23;;;;;;;30.35;20.80;;;;;;;36.27;49.63;96699.16;5059303;28;20511;-71
2023/08/02 06:48:48;;;;;;;25.33;12.00;;;;;;;36.49;48.07;96691.34;5050450;28;20086;-70
2023/08/02 06:51:14;;;;;;;19.77;11.68;;;;;;;36.73;46.79;96678.50;5050535;28;20551;-71
2023/08/02 06:53:40;;;;;;;15.75;10.18;;;;;;;36.40;46.40;96682.72;5049344;28;20099;-72
2023/08/02 06:56:13;;;;;;;17.73;9.20;;;;;;;37.20;44.91;96680.06;5057157;28;20024;-71
2023/08/02 06:58:39;;;;;;;12.88;7.97;;;;;;;38.24;42.20;96673.38;5068500;28;20036;-71
2023/08/02 07:01:15;;;;;;;16.98;10.50;;;;;;;38.77;41.44;96682.66;5059286;28;20029;-71
2023/08/02 07:03:41;;;;;;;17.00;10.07;;;;;;;38.81;41.19;96678.19;5042846;28;20028;-71
2023/08/02 07:06:20;;;;;;;14.98;9.13;;;;;;;37.99;42.58;96675.19;5067420;28;20039;-71
2023/08/02 07:08:46;;;;;;;17.63;9.75;;;;;;;38.14;42.50;96674.28;5067496;28;20039;-72
2023/08/02 07:11:12;;;;;;;16.30;9.43;;;;;;;37.70;43.05;96673.44;5067871;28;20419;-71
2023/08/02 07:13:42;;;;;;;11.93;8.55;;;;;;;39.26;39.82;96676.84;5055147;28;20056;-71
2023/08/02 07:16:08;;;;;;;13.57;8.02;;;;;;;39.41;39.80;96671.06;5039425;28;20040;-71
2023/08/02 07:18:33;;;;;;;13.15;8.13;;;;;;;39.93;37.93;96675.69;5067749;28;20075;-71
2023/08/02 07:21:06;;;;;;;14.25;7.90;;;;;;;39.61;37.89;96667.16;5049604;28;20082;-71
2023/08/02 07:23:32;;;;;;;12.90;7.88;;;;;;;40.83;36.84;96672.50;5049778;28;20051;-72
2023/08/02 07:25:57;;;;;;;13.52;8.23;;;;;;;40.48;36.89;96668.34;5049669;28;20040;-71
2023/08/02 07:28:23;;;;;;;13.77;8.77;;;;;;;40.88;36.21;96659.22;5049338;28;20040;-72
2023/08/02 07:30:48;;;;;;;12.95;8.52;;;;;;;41.17;36.30;96675.78;5053906;28;20029;-71
2023/08/02 07:33:14;;;;;;;15.63;8.50;;;;;;;41.31;36.06;96671.03;5046974;28;20033;-71
2023/08/02 07:35:40;;;;;;;15.63;7.63;;;;;;;41.44;35.71;96680.63;5061208;28;20033;-71
2023/08/02 07:38:05;;;;;;;11.55;7.43;;;;;;;41.54;34.92;96680.38;5067079;28;20044;-72
2023/08/02 07:40:32;;;;;;;10.98;7.53;;;;;;;41.68;34.00;96689.63;5067398;28;20062;-72
2023/08/02 07:42:58;;;;;;;15.70;7.40;;;;;;;41.35;33.57;96671.25;5049883;28;20039;-71
2023/08/02 07:45:23;;;;;;;23.38;6.63;;;;;;;42.73;31.48;96668.59;5048962;28;20036;-71
2023/08/02 07:47:49;;;;;;;6.70;6.10;;;;;;;42.74;30.49;96658.97;5067373;28;20095;-71
2023/08/02 07:50:14;;;;;;;9.05;6.38;;;;;;;41.78;31.25;96663.31;5049110;28;20036;-72
2023/08/02 07:52:40;;;;;;;7.28;5.82;;;;;;;41.75;31.00;96659.09;5067430;28;20412;-71
2023/08/02 07:55:06;;;;;;;6.57;5.97;;;;;;;41.24;31.41;96658.53;5067107;28;20107;-71
2023/08/02 07:57:33;;;;;;;7.45;5.93;;;;;;;41.18;31.53;96657.81;5049021;28;20068;-71
2023/08/02 07:59:59;;;;;;;6.95;6.07;;;;;;;41.68;31.32;96669.97;5067269;28;20086;-71
2023/08/02 08:02:28;;;;;;;10.48;6.05;;;;;;;42.11;30.99;96662.78;5065791;28;20059;-71
2023/08/02 08:04:56;;;;;;;8.05;6.60;;;;;;;40.68;32.61;96667.16;5064210;28;20094;-71
2023/08/02 08:07:21;;;;;;;7.05;6.28;;;;;;;40.19;33.71;96664.91;5065875;28;20127;-71
2023/08/02 08:09:50;;;;;;;10.80;6.53;;;;;;;39.15;34.42;96669.69;5066307;28;20119;-71
2023/08/02 08:12:15;;;;;;;7.60;6.90;;;;;;;38.67;35.39;96678.00;5070664;28;20029;-71
2023/08/02 08:14:42;;;;;;;7.38;6.63;;;;;;;39.70;33.99;96679.38;5070789;28;20024;-71
2023/08/02 08:17:08;;;;;;;7.50;6.53;;;;;;;38.22;35.18;96670.84;5070809;28;20035;-71
2023/08/02 08:19:33;;;;;;;7.47;6.60;;;;;;;38.04;36.21;96681.88;5070595;28;20029;-71
2023/08/02 08:21:59;;;;;;;7.30;6.22;;;;;;;38.75;35.37;96688.56;5070884;28;20450;-71
2023/08/02 08:24:24;;;;;;;7.22;6.53;;;;;;;38.68;35.30;96685.28;5070561;28;20032;-71
2023/08/02 08:26:50;;;;;;;7.45;6.70;;;;;;;38.38;36.08;96686.41;5070688;28;20097;-71
2023/08/02 08:29:17;;;;;;;8.57;6.43;;;;;;;37.83;36.03;96676.44;5070750;28;20056;-71
2023/08/02 08:31:42;;;;;;;9.23;6.22;;;;;;;36.60;38.01;96704.19;5070483;28;20028;-70
2023/08/02 08:34:08;;;;;;;9.30;6.45;;;;;;;36.65;37.92;96698.59;5070265;28;20028;-71
2023/08/02 08:36:33;;;;;;;9.45;6.45;;;;;;;36.45;38.32;96695.81;5052337;28;20028;-71
2023/08/02 08:38:59;;;;;;;10.48;6.50;;;;;;;36.79;37.96;96702.47;5052504;28;20135;-70
2023/08/02 08:41:25;;;;;;;9.77;6.93;;;;;;;37.34;37.61;96698.72;5070172;28;20162;-70
2023/08/02 08:43:50;;;;;;;7.13;5.75;;;;;;;38.33;36.10;96705.16;5070146;28;20031;-70
2023/08/02 08:46:16;;;;;;;13.13;7.05;;;;;;;39.33;35.42;96692.16;5069993;28;20037;-71
2023/08/02 08:48:42;;;;;;;12.57;5.28;;;;;;;42.00;32.24;96683.00;5069829;28;20025;-72
2023/08/02 08:51:13;;;;;;;10.98;6.43;;;;;;;43.22;30.63;96689.22;5035697;28;20063;-70
2023/08/02 08:53:43;;;;;;;8.35;5.65;;;;;;;43.02;29.33;96693.44;5069977;28;20032;-70
2023/08/02 08:56:09;;;;;;;23.58;6.88;;;;;;;42.35;29.58;96679.38;5070012;28;20041;-71
2023/08/02 08:58:36;;;;;;;10.80;6.05;;;;;;;42.43;29.76;96680.59;5069819;28;20553;-70
2023/08/02 09:01:06;;;;;;;7.50;5.40;;;;;;;42.69;29.11;96678.81;5070219;28;20068;-71
2023/08/02 09:03:34;;;;;;;7.32;5.70;;;;;;;43.63;28.62;96682.09;5069897;28;20094;-71
2023/08/02 09:06:01;;;;;;;10.60;6.30;;;;;;;43.39;28.91;96672.41;5069915;28;20056;-70
2023/08/02 09:08:27;;;;;;;9.73;5.72;;;;;;;43.31;28.05;96681.66;5051623;28;20032;-70
2023/08/02 09:10:57;;;;;;;7.35;5.68;;;;;;;43.56;28.24;96686.56;5069553;28;20110;-70
2023/08/02 09:13:24;;;;;;;8.82;5.60;;;;;;;43.76;27.30;96671.88;5069677;28;20036;-70
2023/08/02 09:16:22;;;;;;;9.02;5.65;;;;;;;41.44;29.85;96678.63;5069737;28;20028;-70
2023/08/02 09:18:48;;;;;;;7.78;5.50;;;;;;;41.66;29.58;96675.06;5069208;28;20492;-71
2023/08/02 09:21:15;;;;;;;7.68;5.40;;;;;;;42.40;28.35;96658.72;5067942;28;20050;-70
2023/08/02 09:24:01;;;;;;;19.13;6.85;;;;;;;42.97;28.24;96663.44;5069418;28;20024;-70
2023/08/02 09:26:27;;;;;;;8.70;5.20;;;;;;;43.64;27.73;96666.03;5069131;28;20029;-71
2023/08/02 09:29:09;;;;;;;11.75;5.65;;;;;;;43.08;28.14;96670.44;5068858;28;20033;-71
2023/08/02 09:31:36;;;;;;;7.82;5.20;;;;;;;42.83;28.01;96661.84;5069017;28;20139;-70
2023/08/02 09:34:02;;;;;;;6.38;5.78;;;;;;;42.18;28.74;96667.97;5068986;28;20043;-70
2023/08/02 09:36:33;;;;;;;13.60;6.40;;;;;;;42.51;28.79;96665.75;5069147;28;20435;-71
2023/08/02 09:39:15;;;;;;;10.88;5.55;;;;;;;41.69;28.64;96666.00;5050558;28;20405;-70
2023/08/02 09:41:40;;;;;;;12.32;5.10;;;;;;;41.36;29.15;96662.50;5031359;28;20037;-70
2023/08/02 09:44:07;;;;;;;7.40;5.38;;;;;;;41.67;28.78;96671.09;5048665;28;20194;-70
2023/08/02 09:46:34;;;;;;;8.80;5.57;;;;;;;41.73;29.06;96669.00;5031296;28;20040;-70
2023/08/02 09:49:01;;;;;;;11.73;6.03;;;;;;;41.10;30.11;96675.41;5030939;28;20037;-70
2023/08/02 09:51:41;;;;;;;13.68;5.95;;;;;;;40.49;30.74;96667.19;5048789;28;20109;-70
2023/08/02 09:54:08;;;;;;;6.43;5.72;;;;;;;40.24;31.25;96670.47;5048962;28;20377;-71
2023/08/02 09:56:38;;;;;;;10.50;6.07;;;;;;;41.11;30.42;96672.25;5048596;28;20431;-71
2023/08/02 09:59:05;;;;;;;15.38;6.57;;;;;;;40.69;31.54;96678.09;5031235;28;20407;-70
2023/08/02 10:01:32;;;;;;;8.65;5.43;;;;;;;41.17;30.21;96666.53;5049014;28;20074;-70
2023/08/02 10:04:03;;;;;;;6.68;5.80;;;;;;;40.32;32.31;96683.78;5031000;28;20032;-70
2023/08/02 10:06:32;;;;;;;7.80;6.33;;;;;;;40.08;33.10;96690.31;5031689;28;20569;-70
2023/08/02 10:09:04;;;;;;;9.07;6.07;;;;;;;40.62;32.96;96683.28;5048413;28;20028;-71
2023/08/02 10:11:34;;;;;;;13.07;6.13;;;;;;;40.23;34.50;96685.59;5031324;28;20566;-71
2023/08/02 10:14:00;;;;;;;6.43;5.43;;;;;;;39.72;36.33;96697.53;5048622;28;20028;-71
2023/08/02 10:16:26;;;;;;;7.40;5.90;;;;;;;39.83;36.11;96704.69;5048556;28;20021;-71
2023/08/02 10:18:52;;;;;;;7.07;5.82;;;;;;;40.80;35.16;96690.78;5048505;28;20488;-70
2023/08/02 10:21:18;;;;;;;8.48;6.18;;;;;;;40.81;34.47;96705.66;5048224;28;20247;-71
2023/08/02 10:23:44;;;;;;;7.45;6.00;;;;;;;40.94;34.85;96694.50;5014075;28;20020;-71
2023/08/02 10:26:10;;;;;;;8.88;5.57;;;;;;;42.44;32.96;96680.28;5048395;28;20033;-72
2023/08/02 10:28:36;;;;;;;14.55;6.05;;;;;;;43.38;32.37;96687.69;5030684;28;20027;-70
2023/08/02 10:31:07;;;;;;;9.57;5.60;;;;;;;43.99;30.50;96689.50;5048011;28;20017;-70
2023/08/02 10:33:32;;;;;;;10.02;5.80;;;;;;;44.42;30.08;96689.53;5048584;28;20511;-71
2023/08/02 10:36:07;;;;;;;6.03;5.07;;;;;;;46.28;27.45;96677.00;5048136;28;20039;-71
2023/08/02 10:38:39;;;;;;;5.45;4.95;;;;;;;47.66;25.97;96692.56;5044384;28;20044;-71
2023/08/02 10:41:04;;;;;;;7.35;4.93;;;;;;;47.61;25.85;96684.31;5050361;28;20586;-70
2023/08/02 10:43:30;;;;;;;7.25;5.25;;;;;;;47.63;25.55;96679.09;5067960;28;20046;-69
2023/08/02 10:46:14;;;;;;;6.05;5.30;;;;;;;46.20;27.64;96675.09;5068279;28;20086;-69
2023/08/02 10:48:39;;;;;;;7.60;4.93;;;;;;;45.87;27.64;96682.63;5068600;28;20026;-69
2023/08/02 10:51:05;;;;;;;16.33;5.03;;;;;;;46.07;27.09;96673.34;5068187;28;20028;-69
2023/08/02 10:53:31;;;;;;;6.43;4.65;;;;;;;46.62;26.33;96675.91;5049650;28;20031;-70
2023/08/02 10:56:04;;;;;;;6.50;5.18;;;;;;;47.78;24.99;96672.69;5067092;28;20024;-71
2023/08/02 10:58:46;;;;;;;7.30;6.35;;;;;;;48.79;24.88;96673.44;5052143;28;20032;-70
2023/08/02 11:01:12;;;;;;;10.68;6.90;;;;;;;48.82;24.72;96681.25;5069618;28;20032;-70
2023/08/02 11:03:39;;;;;;;7.20;5.32;;;;;;;47.87;24.99;96664.94;5070595;28;20028;-70
2023/08/02 11:06:04;;;;;;;5.82;5.22;;;;;;;47.58;25.08;96656.66;5070769;28;20458;-71
2023/08/02 11:08:30;;;;;;;9.80;5.85;;;;;;;48.28;24.30;96658.94;5070237;28;20135;-70
2023/08/02 11:10:55;;;;;;;7.50;5.32;;;;;;;49.08;23.22;96653.16;5052526;28;20031;-71
2023/08/02 11:13:23;;;;;;;8.23;5.57;;;;;;;48.76;23.52;96657.13;5070251;28;20435;-70
2023/08/02 11:16:02;;;;;;;14.98;5.93;;;;;;;48.20;24.53;96664.75;5070296;28;20024;-76
2023/08/02 11:18:30;;;;;;;5.85;5.35;;;;;;;47.69;24.74;96667.16;5070393;28;20036;-76
2023/08/02 11:21:09;;;;;;;5.82;5.28;;;;;;;46.17;25.73;96664.47;5070323;28;20108;-77
2023/08/02 11:23:35;;;;;;;7.85;5.65;;;;;;;46.74;25.64;96666.59;5052417;28;20492;-76